Time;durP1;ratioP1;P1;durP2;ratioP2;P2;SDS_P1;SDS_P2;PMS_P1;PMS_P2;Temp;Humidity;BMP_temperature;BMP_pressure;BME280_temperature;BME280_humidity;BME280_pressure;Samples;Min_cycle;Max_cycle;Signal;HPM_P1;HPM_P2
2023/04/10 00:01:51;;;;;;;12.82;10.48;;;;;;;7.70;86.54;101093.06;5023147;28;20089;-89
2023/04/10 00:04:18;;;;;;;15.82;11.27;;;;;;;7.43;88.83;101093.69;5007296;28;20061;-88
2023/04/10 00:06:47;;;;;;;16.27;11.25;;;;;;;7.31;92.32;101106.25;5001444;28;20035;-88
2023/04/10 00:09:14;;;;;;;15.55;10.88;;;;;;;7.04;93.97;101080.53;5003616;28;20047;-88
2023/04/10 00:11:45;;;;;;;15.10;11.25;;;;;;;6.96;95.88;101098.25;5000589;28;20045;-91
2023/04/10 00:14:12;;;;;;;15.35;11.40;;;;;;;6.71;96.94;101062.81;4998990;28;20052;-88
2023/04/10 00:16:40;;;;;;;16.63;11.30;;;;;;;6.86;99.07;101116.00;5008024;28;20036;-89
2023/04/10 00:19:17;;;;;;;15.70;11.43;;;;;;;6.59;100.00;101077.09;5018282;28;20059;-90
2023/04/10 00:21:47;;;;;;;16.20;11.15;;;;;;;6.68;100.00;101104.06;4998762;28;20049;-86
2023/04/10 00:24:13;;;;;;;14.95;11.30;;;;;;;6.59;100.00;101090.25;5007756;28;20030;-90
2023/04/10 00:26:43;;;;;;;17.33;11.85;;;;;;;6.64;100.00;101104.16;4998372;28;20031;-87
2023/04/10 00:29:12;;;;;;;17.35;12.93;;;;;;;6.59;100.00;101109.53;5015425;28;20041;-88
2023/04/10 00:31:39;;;;;;;16.92;12.20;;;;;;;6.53;100.00;101107.00;5001334;28;20414;-87
2023/04/10 00:34:10;;;;;;;16.27;12.40;;;;;;;6.24;100.00;101064.59;5000603;28;20068;-85
2023/04/10 00:36:40;;;;;;;15.73;11.13;;;;;;;6.49;100.00;101105.31;5019535;28;20098;-88
2023/04/10 00:39:08;;;;;;;16.65;11.25;;;;;;;6.20;100.00;101066.41;5024351;28;20045;-90
2023/04/10 00:41:38;;;;;;;14.18;10.80;;;;;;;6.13;100.00;101053.41;4998536;28;20041;-89
2023/04/10 00:44:08;;;;;;;17.75;11.80;;;;;;;6.37;100.00;101108.19;5003811;28;20037;-90
2023/04/10 00:46:37;;;;;;;15.40;11.32;;;;;;;6.30;100.00;101109.19;4996839;28;20078;-87
2023/04/10 00:49:05;;;;;;;16.80;12.13;;;;;;;6.24;100.00;101106.69;4997160;28;20050;-89
2023/04/10 00:51:33;;;;;;;15.68;11.10;;;;;;;6.13;100.00;101099.00;4988543;28;20042;-93
2023/04/10 00:54:01;;;;;;;16.90;11.90;;;;;;;6.18;100.00;101106.78;5007219;28;20311;-92
2023/04/10 00:56:31;;;;;;;16.40;12.20;;;;;;;6.14;100.00;101098.06;5000485;28;20045;-90
2023/04/10 00:58:58;;;;;;;16.08;11.80;;;;;;;6.01;100.00;101074.63;4995777;28;20510;-93
2023/04/10 01:01:25;;;;;;;15.15;11.30;;;;;;;6.07;100.00;101103.47;4983247;28;20113;-89
2023/04/10 01:03:52;;;;;;;17.88;12.43;;;;;;;6.02;100.00;101103.53;4987282;28;20077;-90
2023/04/10 01:06:39;;;;;;;17.42;12.05;;;;;;;5.96;100.00;101101.03;4995684;28;20073;-87
2023/04/10 01:09:33;;;;;;;17.48;12.05;;;;;;;5.87;100.00;101099.38;4997283;28;20098;-90
2023/04/10 01:12:20;;;;;;;16.80;11.23;;;;;;;5.86;100.00;101113.41;5003717;28;20056;-88
2023/04/10 01:14:47;;;;;;;15.90;11.40;;;;;;;5.64;100.00;101093.63;5008156;28;20034;-89
2023/04/10 01:17:35;;;;;;;16.85;12.00;;;;;;;5.42;100.00;101071.19;5000378;28;20034;-88
2023/04/10 01:20:12;;;;;;;17.20;11.95;;;;;;;5.63;100.00;101118.19;4992882;28;20117;-91
2023/04/10 01:22:58;;;;;;;17.52;12.05;;;;;;;5.55;100.00;101104.28;4995462;28;20084;-92
2023/04/10 01:25:48;;;;;;;17.58;12.45;;;;;;;5.45;100.00;101108.81;4998675;28;20085;-93
2023/04/10 01:28:29;;;;;;;16.77;12.07;;;;;;;5.39;100.00;101108.00;4997452;28;20054;-92
2023/04/10 01:30:59;;;;;;;16.67;11.73;;;;;;;5.28;100.00;101095.91;4988365;28;20114;-90
2023/04/10 01:33:39;;;;;;;17.38;11.23;;;;;;;5.47;100.00;101111.41;4996735;28;20050;-91
2023/04/10 01:36:10;;;;;;;16.95;12.50;;;;;;;5.49;100.00;101114.88;4991275;28;20073;-92
2023/04/10 01:38:43;;;;;;;17.88;11.35;;;;;;;5.53;100.00;101106.03;4993179;28;20045;-91
2023/04/10 01:41:11;;;;;;;18.13;11.18;;;;;;;5.62;100.00;101111.19;4982220;28;20058;-92
2023/04/10 01:43:40;;;;;;;21.00;11.43;;;;;;;5.50;100.00;101100.88;4984765;28;20073;-92
2023/04/10 01:46:08;;;;;;;17.20;11.70;;;;;;;5.51;100.00;101099.97;4979842;28;20073;-92
2023/04/10 01:48:39;;;;;;;16.25;11.82;;;;;;;5.50;100.00;101106.13;4981100;28;20046;-92
2023/04/10 01:51:10;;;;;;;18.35;11.80;;;;;;;5.45;100.00;101087.78;4973483;28;20038;-93
2023/04/10 01:53:38;;;;;;;20.00;12.48;;;;;;;5.58;100.00;101096.34;4987469;28;20623;-93
2023/04/10 01:56:09;;;;;;;18.27;11.63;;;;;;;5.58;100.00;101101.59;4986551;28;20061;-92
2023/04/10 01:58:37;;;;;;;17.00;11.93;;;;;;;5.49;100.00;101078.13;4995911;28;20038;-88
2023/04/10 02:01:04;;;;;;;16.13;11.20;;;;;;;5.54;100.00;101086.78;4999452;28;20039;-87
2023/04/10 02:03:32;;;;;;;15.60;11.63;;;;;;;5.54;100.00;101081.50;5007654;28;20045;-89
2023/04/10 02:06:17;;;;;;;15.55;11.60;;;;;;;5.54;100.00;101092.03;5000328;28;20062;-88
2023/04/10 02:08:55;;;;;;;16.90;11.90;;;;;;;5.46;100.00;101075.53;5008910;28;20077;-90
2023/04/10 02:12:07;;;;;;;18.08;12.05;;;;;;;5.55;100.00;101078.00;4997050;28;20050;-90
2023/04/10 02:14:40;;;;;;;17.55;12.13;;;;;;;5.63;100.00;101086.66;5005078;28;20066;-90
2023/04/10 02:17:15;;;;;;;18.30;11.80;;;;;;;5.59;100.00;101062.16;4982680;28;20070;-91
2023/04/10 02:19:46;;;;;;;18.88;12.68;;;;;;;5.60;100.00;101063.03;4972362;28;20056;-92
2023/04/10 02:22:14;;;;;;;16.45;11.73;;;;;;;5.58;100.00;101055.19;4977498;28;20050;-92
2023/04/10 02:24:41;;;;;;;17.38;12.05;;;;;;;5.66;100.00;101064.72;4985946;28;20100;-90
2023/04/10 02:27:08;;;;;;;16.05;11.80;;;;;;;5.68;100.00;101058.50;4991752;28;20147;-92
2023/04/10 02:29:35;;;;;;;14.27;11.07;;;;;;;5.73;100.00;101064.56;4989688;28;20053;-92
2023/04/10 02:32:03;;;;;;;17.58;11.65;;;;;;;5.76;100.00;101068.91;4983881;28;20070;-89
2023/04/10 02:34:32;;;;;;;17.33;12.60;;;;;;;5.78;100.00;101070.63;4987552;28;20088;-91
2023/04/10 02:37:00;;;;;;;17.23;12.55;;;;;;;5.78;100.00;101054.00;5006141;28;20053;-91
2023/04/10 02:39:27;;;;;;;16.30;11.75;;;;;;;5.91;100.00;101066.94;4988907;28;20050;-91
2023/04/10 02:41:55;;;;;;;17.90;12.02;;;;;;;5.91;100.00;101056.41;4998977;28;20081;-90
2023/04/10 02:44:29;;;;;;;15.90;11.85;;;;;;;6.12;100.00;101070.09;5014778;28;20038;-92
2023/04/10 02:46:57;;;;;;;18.05;11.65;;;;;;;6.17;100.00;101071.72;4986912;28;20108;-93
2023/04/10 02:49:26;;;;;;;17.83;12.32;;;;;;;6.21;100.00;101069.91;4982615;28;20077;-91
2023/04/10 02:51:55;;;;;;;16.83;11.57;;;;;;;6.19;100.00;101066.44;4980356;28;20038;-90
2023/04/10 02:54:22;;;;;;;17.60;12.13;;;;;;;6.08;100.00;101066.63;4989436;28;20470;-90
2023/04/10 02:56:49;;;;;;;16.88;12.52;;;;;;;6.07;100.00;101066.66;4988867;28;20052;-90
2023/04/10 02:59:20;;;;;;;17.25;12.38;;;;;;;5.99;100.00;101059.75;4991685;28;20034;-91
2023/04/10 03:01:51;;;;;;;18.63;12.50;;;;;;;5.85;100.00;101045.09;5000447;28;20057;-92
2023/04/10 03:04:22;;;;;;;17.02;12.10;;;;;;;5.87;100.00;101065.19;4996762;28;20061;-86
2023/04/10 03:06:49;;;;;;;16.73;12.20;;;;;;;5.77;100.00;101061.00;4988117;28;20038;-91
2023/04/10 03:09:16;;;;;;;15.98;12.00;;;;;;;5.64;100.00;101046.34;4975622;28;20048;-90
2023/04/10 03:11:44;;;;;;;16.27;11.52;;;;;;;5.70;100.00;101055.88;5010198;28;21145;-89
2023/04/10 03:14:12;;;;;;;15.68;11.68;;;;;;;5.55;100.00;101035.97;5009995;28;20060;-92
2023/04/10 03:16:39;;;;;;;23.48;11.98;;;;;;;5.55;100.00;101052.59;4998904;28;20069;-87
2023/04/10 03:19:06;;;;;;;14.90;10.95;;;;;;;5.58;100.00;101051.69;5000077;28;20054;-85
2023/04/10 03:21:33;;;;;;;16.45;12.00;;;;;;;5.62;100.00;101053.38;5005775;28;20081;-86
2023/04/10 03:24:01;;;;;;;15.05;10.88;;;;;;;5.59;100.00;101030.66;5000649;28;20089;-87
2023/04/10 03:26:28;;;;;;;17.13;11.98;;;;;;;5.54;100.00;101006.19;5008411;28;20041;-87
2023/04/10 03:28:56;;;;;;;18.60;12.95;;;;;;;5.79;100.00;101045.22;4990684;28;20042;-88
2023/04/10 03:31:22;;;;;;;17.25;12.68;;;;;;;5.83;100.00;101045.13;4991433;28;20450;-91
2023/04/10 03:33:49;;;;;;;16.10;12.20;;;;;;;5.88;100.00;101037.16;5005213;28;20125;-92
2023/04/10 03:36:23;;;;;;;16.25;11.70;;;;;;;5.87;100.00;101025.78;4988084;28;20054;-91
2023/04/10 03:38:51;;;;;;;17.52;11.93;;;;;;;6.01;100.00;101037.84;4985927;28;20069;-92
2023/04/10 03:41:18;;;;;;;17.45;12.57;;;;;;;5.97;100.00;101031.78;4994225;28;20039;-90
2023/04/10 03:43:50;;;;;;;18.20;12.15;;;;;;;6.05;100.00;101042.16;5016841;28;20065;-90
2023/04/10 03:46:21;;;;;;;16.98;11.98;;;;;;;6.06;100.00;101028.97;5005080;28;20050;-91
2023/04/10 03:48:49;;;;;;;15.05;10.60;;;;;;;6.13;100.00;101035.00;5004674;28;20042;-90
2023/04/10 03:51:20;;;;;;;17.20;12.02;;;;;;;6.03;100.00;101036.91;5004175;28;20249;-86
2023/04/10 03:53:50;;;;;;;15.65;11.48;;;;;;;5.97;100.00;101035.28;5014055;28;20094;-91
2023/04/10 03:56:20;;;;;;;18.45;12.20;;;;;;;5.92;100.00;101033.63;5001552;28;20034;-86
2023/04/10 03:58:47;;;;;;;16.55;11.68;;;;;;;5.94;100.00;101032.72;5005844;28;20043;-86
2023/04/10 04:01:15;;;;;;;17.15;11.20;;;;;;;5.85;100.00;101022.31;5008527;28;20035;-88
2023/04/10 04:03:42;;;;;;;18.33;11.85;;;;;;;5.90;100.00;101033.66;4999212;28;20042;-87
2023/04/10 04:06:09;;;;;;;17.73;11.50;;;;;;;5.81;100.00;101020.66;5007330;28;20101;-88
2023/04/10 04:08:39;;;;;;;17.67;11.45;;;;;;;5.82;100.00;101025.00;4996872;28;20046;-92
2023/04/10 04:11:07;;;;;;;19.17;11.77;;;;;;;5.85;100.00;101035.44;4983276;28;20047;-93
2023/04/10 04:13:34;;;;;;;18.77;12.05;;;;;;;5.85;100.00;101024.06;5006725;28;20467;-93
2023/04/10 04:16:01;;;;;;;17.77;12.23;;;;;;;5.83;100.00;101031.09;4995832;28;20130;-92
2023/04/10 04:18:34;;;;;;;18.13;11.98;;;;;;;5.79;100.00;101030.31;4975722;28;20688;-91
2023/04/10 04:21:02;;;;;;;17.63;11.82;;;;;;;5.74;100.00;101016.38;4982971;28;20042;-91
2023/04/10 04:23:32;;;;;;;17.02;12.32;;;;;;;5.82;100.00;101025.00;4987255;28;20134;-91
2023/04/10 04:25:59;;;;;;;14.90;11.25;;;;;;;5.77;100.00;101028.59;4993666;28;20045;-89
2023/04/10 04:28:26;;;;;;;16.60;11.32;;;;;;;5.71;100.00;101026.94;5021366;28;20045;-87
2023/04/10 04:30:58;;;;;;;16.37;11.57;;;;;;;5.72;100.00;101035.69;4998781;28;20034;-88
2023/04/10 04:33:25;;;;;;;18.27;12.45;;;;;;;5.63;100.00;101023.59;5014550;28;20050;-87
2023/04/10 04:35:52;;;;;;;15.93;11.40;;;;;;;5.77;100.00;101040.00;5004030;28;20049;-89
2023/04/10 04:38:19;;;;;;;18.58;11.98;;;;;;;5.58;100.00;101014.91;4989636;28;20046;-89
2023/04/10 04:40:46;;;;;;;17.20;12.07;;;;;;;5.75;100.00;101040.91;5017016;28;20088;-86
2023/04/10 04:43:13;;;;;;;16.75;11.27;;;;;;;5.72;100.00;101033.94;5016628;28;20066;-92
2023/04/10 04:45:41;;;;;;;17.00;11.65;;;;;;;5.71;100.00;101033.94;4972100;28;20050;-88
2023/04/10 04:48:09;;;;;;;16.70;12.45;;;;;;;5.60;100.00;101023.63;4997833;28;20034;-88
2023/04/10 04:50:39;;;;;;;18.75;12.43;;;;;;;5.68;100.00;101047.13;4997311;28;20042;-90
2023/04/10 04:53:10;;;;;;;15.90;11.95;;;;;;;5.68;100.00;101048.00;5002552;28;20069;-89
2023/04/10 04:55:43;;;;;;;18.85;12.25;;;;;;;5.70;100.00;101040.09;5005653;28;20055;-90
2023/04/10 04:58:10;;;;;;;17.30;11.98;;;;;;;5.60;100.00;101024.50;5019573;28;20046;-93
2023/04/10 05:00:37;;;;;;;18.85;12.63;;;;;;;5.58;100.00;101014.91;4987891;28;20046;-90
2023/04/10 05:03:05;;;;;;;17.70;11.68;;;;;;;5.73;100.00;101045.31;4996932;28;20046;-91
2023/04/10 05:05:44;;;;;;;18.15;12.63;;;;;;;5.54;100.00;101005.34;5001393;28;20057;-93
2023/04/10 05:08:13;;;;;;;19.40;12.43;;;;;;;5.40;100.00;100983.69;5008360;28;20106;-91
2023/04/10 05:10:40;;;;;;;16.20;11.55;;;;;;;5.58;100.00;101022.78;4981347;28;20085;-93
2023/04/10 05:13:09;;;;;;;18.38;12.15;;;;;;;5.73;100.00;101050.56;5001971;28;20114;-93
2023/04/10 05:15:38;;;;;;;19.40;12.13;;;;;;;5.74;100.00;101047.91;4987327;28;20427;-94
2023/04/10 05:18:18;;;;;;;15.40;11.68;;;;;;;5.54;100.00;101013.22;4989578;28;20045;-91
2023/04/10 05:20:49;;;;;;;16.05;11.57;;;;;;;5.40;100.00;100991.56;5002100;28;20051;-92
2023/04/10 05:23:17;;;;;;;17.23;11.57;;;;;;;5.73;100.00;101043.56;4985496;28;20058;-91
2023/04/10 05:25:47;;;;;;;17.15;11.75;;;;;;;5.73;100.00;101058.44;4983307;28;20048;-91
2023/04/10 05:28:18;;;;;;;19.63;12.63;;;;;;;5.75;100.00;101056.66;5008143;28;20062;-89
2023/04/10 05:30:45;;;;;;;16.48;11.40;;;;;;;5.78;100.00;101056.63;4987969;28;20046;-89
2023/04/10 05:33:12;;;;;;;17.05;11.60;;;;;;;5.72;100.00;101049.69;4986504;28;20046;-88
2023/04/10 05:35:44;;;;;;;16.35;11.75;;;;;;;5.77;100.00;101058.38;4988153;28;20049;-90
2023/04/10 05:38:12;;;;;;;15.52;11.18;;;;;;;5.68;100.00;101058.50;4979612;28;20048;-92
2023/04/10 05:40:44;;;;;;;15.32;11.45;;;;;;;5.36;100.00;101011.75;4982054;28;20070;-92
2023/04/10 05:43:13;;;;;;;15.95;11.43;;;;;;;5.56;100.00;101050.84;4994960;28;20038;-90
2023/04/10 05:45:47;;;;;;;18.83;11.77;;;;;;;5.61;100.00;101052.50;4992608;28;20065;-93
2023/04/10 05:48:17;;;;;;;14.73;10.80;;;;;;;5.74;100.00;101066.31;5002433;28;20442;-88
2023/04/10 05:50:45;;;;;;;17.42;11.40;;;;;;;5.74;100.00;101071.56;4997215;28;20064;-92
2023/04/10 05:53:19;;;;;;;17.83;11.73;;;;;;;5.75;100.00;101069.81;5001032;28;20042;-91
2023/04/10 05:55:55;;;;;;;16.45;11.10;;;;;;;5.75;100.00;101072.44;4986275;28;20049;-93
2023/04/10 05:58:26;;;;;;;16.15;11.05;;;;;;;5.66;100.00;101055.06;4983965;28;20070;-93
2023/04/10 06:01:03;;;;;;;15.77;11.25;;;;;;;5.74;100.00;101068.94;5008012;28;20106;-93
2023/04/10 06:03:32;;;;;;;16.27;11.48;;;;;;;5.62;100.00;101045.50;5004030;28;20037;-87
2023/04/10 06:06:01;;;;;;;14.43;10.63;;;;;;;5.77;100.00;101070.66;5000799;28;20030;-91
2023/04/10 06:08:31;;;;;;;17.45;12.43;;;;;;;5.79;100.00;101061.84;5005365;28;20034;-85
2023/04/10 06:11:03;;;;;;;17.17;11.40;;;;;;;5.85;100.00;101063.50;5015780;28;20050;-93
2023/04/10 06:13:38;;;;;;;15.40;11.38;;;;;;;5.93;100.00;101065.16;4970840;28;20050;-94
2023/04/10 06:16:15;;;;;;;17.67;11.88;;;;;;;5.69;100.00;101006.84;4990364;28;20074;-92
2023/04/10 06:18:49;;;;;;;15.93;12.13;;;;;;;5.99;100.00;101046.63;4994575;28;20065;-91
2023/04/10 06:21:16;;;;;;;17.70;11.90;;;;;;;6.10;100.00;101045.56;5004258;28;20038;-90
2023/04/10 06:23:46;;;;;;;17.83;11.43;;;;;;;5.79;100.00;100983.00;4995342;28;20050;-91
2023/04/10 06:26:17;;;;;;;15.60;11.03;;;;;;;6.18;100.00;101035.78;4996356;28;20061;-92
2023/04/10 06:28:59;;;;;;;16.83;10.98;;;;;;;6.39;100.00;101035.38;4983848;28;20879;-91
2023/04/10 06:31:40;;;;;;;17.67;11.27;;;;;;;6.57;100.00;101031.50;5016053;28;20046;-92
2023/04/10 06:34:10;;;;;;;18.35;11.80;;;;;;;6.92;100.00;101046.56;5012045;28;20120;-93
2023/04/10 06:36:41;;;;;;;16.02;11.93;;;;;;;7.09;100.00;101046.16;5001844;28;20055;-91
2023/04/10 06:39:10;;;;;;;17.67;12.32;;;;;;;6.94;100.00;101006.09;5019019;28;20062;-90
2023/04/10 06:41:40;;;;;;;18.83;12.90;;;;;;;7.36;100.00;101041.16;5006043;28;20046;-90
2023/04/10 06:44:13;;;;;;;18.90;12.18;;;;;;;7.55;97.83;101048.63;4991225;28;20053;-90
2023/04/10 06:46:46;;;;;;;19.02;12.13;;;;;;;7.49;96.82;101001.34;4996572;28;20054;-92
2023/04/10 06:49:15;;;;;;;17.73;12.13;;;;;;;7.94;94.24;101055.53;4987940;28;20042;-90
2023/04/10 06:51:53;;;;;;;18.20;12.70;;;;;;;8.12;91.34;101035.72;5010220;28;20039;-90
2023/04/10 06:54:21;;;;;;;17.08;12.35;;;;;;;8.40;89.81;101038.50;4987261;28;20040;-92
2023/04/10 06:57:06;;;;;;;19.02;12.85;;;;;;;8.65;86.30;101023.72;5004352;28;20054;-90
2023/04/10 06:59:52;;;;;;;19.85;13.00;;;;;;;8.95;83.41;101042.22;5008913;28;20076;-90
2023/04/10 07:02:21;;;;;;;;;;;;;;;9.26;81.78;101050.94;4993763;28;20047;-92
2023/04/10 07:04:59;;;;;;;17.00;11.98;;;;;;;9.40;79.19;101019.63;4987496;28;19922;-86
2023/04/10 07:07:41;;;;;;;16.98;11.75;;;;;;;9.88;75.42;101044.53;5022970;28;20068;-88
2023/04/10 07:10:18;;;;;;;19.25;12.57;;;;;;;9.88;74.25;101003.06;5417799;23;20050;-92
2023/04/10 07:13:07;;;;;;;16.35;11.88;;;;;;;10.01;71.12;101006.13;5024142;28;20041;-91
2023/04/10 07:15:48;;;;;;;15.57;11.50;;;;;;;10.43;71.60;101039.03;5033650;28;20081;-93
2023/04/10 07:18:28;;;;;;;16.17;11.85;;;;;;;10.55;69.62;101009.47;5034131;28;20034;-90
2023/04/10 07:21:12;;;;;;;16.15;11.95;;;;;;;10.92;66.91;101036.38;5022139;28;20041;-91
2023/04/10 07:23:59;;;;;;;15.93;11.90;;;;;;;11.03;66.89;101042.09;5040495;28;20052;-89
2023/04/10 07:26:45;;;;;;;16.05;11.27;;;;;;;11.14;66.90;101039.94;5036448;28;20022;-91
2023/04/10 07:29:15;;;;;;;17.17;12.07;;;;;;;11.30;62.64;101041.06;5018796;28;20094;-87
2023/04/10 07:31:47;;;;;;;17.13;11.50;;;;;;;11.28;62.20;100992.53;5476829;23;20061;-89
2023/04/10 07:34:24;;;;;;;15.43;11.52;;;;;;;11.59;61.59;101026.59;4994665;28;20065;-90
2023/04/10 07:36:53;;;;;;;17.52;12.57;;;;;;;11.73;61.12;101026.03;5000429;28;20058;-90
2023/04/10 07:39:34;;;;;;;16.00;12.55;;;;;;;12.01;59.93;101021.31;5023028;28;20040;-90
2023/04/10 07:42:01;;;;;;;16.58;12.43;;;;;;;12.26;58.40;101019.34;5024317;28;20053;-88
2023/04/10 07:44:36;;;;;;;17.52;12.88;;;;;;;12.54;57.18;101028.72;5008682;28;20045;-90
2023/04/10 07:47:10;;;;;;;15.35;11.63;;;;;;;12.76;55.39;101017.97;5110712;23;20144;-92
2023/04/10 07:49:41;;;;;;;17.08;12.35;;;;;;;12.85;55.28;101012.25;4998679;28;20030;-92
2023/04/10 07:52:14;;;;;;;16.38;11.90;;;;;;;12.83;55.29;101001.69;5067486;23;20107;-90
2023/04/10 07:54:43;;;;;;;17.27;12.98;;;;;;;12.84;54.94;101002.53;5044635;28;20495;-89
2023/04/10 07:57:19;;;;;;;17.58;12.82;;;;;;;12.76;55.03;100996.72;5028645;28;20041;-92
2023/04/10 08:00:01;;;;;;;17.17;12.35;;;;;;;12.90;54.97;101018.22;5037840;28;20097;-89
2023/04/10 08:02:36;;;;;;;16.73;11.43;;;;;;;12.87;55.26;101005.94;5052885;28;20037;-91
2023/04/10 08:05:05;;;;;;;17.10;12.60;;;;;;;12.96;55.51;101000.16;5057391;28;20037;-90
2023/04/10 08:07:35;;;;;;;16.38;11.68;;;;;;;13.10;54.86;100998.66;5041082;28;20037;-91
2023/04/10 08:10:04;;;;;;;16.25;11.85;;;;;;;13.18;53.88;100988.56;5028419;28;20378;-91
2023/04/10 08:12:35;;;;;;;15.38;11.40;;;;;;;13.33;53.71;100993.13;5045674;28;20040;-91
2023/04/10 08:15:02;;;;;;;15.35;11.88;;;;;;;13.42;53.71;100986.47;5030841;28;20105;-92
2023/04/10 08:17:48;;;;;;;15.43;11.48;;;;;;;13.61;53.29;100964.22;5051952;28;20421;-91
2023/04/10 08:20:18;;;;;;;14.35;11.60;;;;;;;14.06;52.25;100978.75;5236907;23;20113;-90
2023/04/10 08:22:46;;;;;;;14.02;11.27;;;;;;;14.23;51.61;100981.41;5044219;28;20042;-90
2023/04/10 08:25:29;;;;;;;16.02;11.63;;;;;;;14.23;51.72;100984.06;5039003;28;20033;-91
2023/04/10 08:27:59;;;;;;;13.75;11.05;;;;;;;14.23;51.57;100953.91;5020413;28;20042;-92
2023/04/10 08:30:47;;;;;;;13.45;10.88;;;;;;;14.48;50.36;100972.16;5027887;28;20084;-92
2023/04/10 08:33:20;;;;;;;12.77;10.27;;;;;;;14.59;49.71;100962.63;5034290;28;20038;-91
2023/04/10 08:35:48;;;;;;;14.02;10.45;;;;;;;14.54;49.37;100959.34;5035789;28;20096;-91
2023/04/10 08:38:23;;;;;;;12.32;9.40;;;;;;;14.64;49.28;100965.88;5034196;28;20154;-90
2023/04/10 08:40:56;;;;;;;12.77;10.13;;;;;;;14.85;47.88;100954.97;5016928;28;20101;-91
2023/04/10 08:43:25;;;;;;;12.27;9.65;;;;;;;14.92;47.51;100951.91;5037278;28;20391;-90
2023/04/10 08:45:56;;;;;;;11.95;9.20;;;;;;;14.94;47.40;100931.34;5027705;28;20041;-92
2023/04/10 08:48:30;;;;;;;11.30;8.85;;;;;;;15.30;47.97;100948.84;5019138;28;20049;-91
2023/04/10 08:51:03;;;;;;;12.63;9.00;;;;;;;15.47;49.14;100934.53;5023703;28;20441;-91
2023/04/10 08:53:42;;;;;;;10.63;8.60;;;;;;;15.49;45.79;100943.31;5003903;28;20060;-92
2023/04/10 08:56:13;;;;;;;11.63;8.13;;;;;;;15.20;45.85;100937.00;5001262;28;20049;-92
2023/04/10 08:58:44;;;;;;;10.40;8.00;;;;;;;14.86;47.66;100936.22;5019044;28;20049;-91
2023/04/10 09:01:14;;;;;;;10.32;8.52;;;;;;;14.62;45.70;100943.81;5025293;28;20042;-93
2023/04/10 09:03:41;;;;;;;12.50;8.52;;;;;;;14.45;47.38;100945.66;5011727;28;20128;-91
2023/04/10 09:06:09;;;;;;;10.85;8.63;;;;;;;14.14;48.29;100886.03;5020605;28;20049;-92
2023/04/10 09:08:41;;;;;;;10.45;8.88;;;;;;;14.32;47.40;100926.78;5002202;28;20037;-93
2023/04/10 09:11:21;;;;;;;11.07;8.77;;;;;;;14.32;48.70;100918.81;5004940;28;20038;-91
2023/04/10 09:13:56;;;;;;;10.25;8.23;;;;;;;14.15;49.27;100898.41;5000810;28;20065;-91
2023/04/10 09:16:29;;;;;;;10.48;8.35;;;;;;;14.30;48.17;100926.00;5004740;28;20038;-90
2023/04/10 09:19:01;;;;;;;9.95;7.57;;;;;;;14.38;46.52;100903.31;5011099;28;20076;-91
2023/04/10 09:21:34;;;;;;;8.27;7.10;;;;;;;14.54;46.68;100895.38;5027610;28;20073;-90
2023/04/10 09:24:01;;;;;;;10.32;7.90;;;;;;;14.60;46.63;100891.53;5019030;28;20034;-89
2023/04/10 09:26:32;;;;;;;9.10;6.90;;;;;;;14.62;46.69;100860.31;5033267;28;20347;-89
2023/04/10 09:29:04;;;;;;;9.43;7.68;;;;;;;14.98;46.30;100879.53;5023677;28;20543;-91
2023/04/10 09:31:39;;;;;;;8.60;6.82;;;;;;;15.17;45.32;100884.66;5010054;28;20068;-89
2023/04/10 09:34:16;;;;;;;9.70;7.70;;;;;;;15.22;44.02;100865.72;5001935;28;20052;-93
2023/04/10 09:37:00;;;;;;;8.07;6.72;;;;;;;15.43;44.00;100883.13;5024163;28;20617;-91
2023/04/10 09:39:33;;;;;;;8.45;6.55;;;;;;;15.56;43.88;100869.97;5018676;28;20037;-91
2023/04/10 09:42:03;;;;;;;8.35;7.18;;;;;;;15.57;45.15;100848.53;5006702;28;20052;-91
2023/04/10 09:44:40;;;;;;;8.95;7.13;;;;;;;15.66;43.80;100844.41;5016676;28;20026;-93
2023/04/10 09:47:20;;;;;;;8.38;6.38;;;;;;;15.71;43.71;100863.69;5028609;28;20069;-94
2023/04/10 09:50:01;;;;;;;8.95;7.00;;;;;;;15.71;43.84;100861.03;4999528;28;20124;-94
2023/04/10 09:52:41;;;;;;;12.00;7.47;;;;;;;15.68;45.00;100847.84;5022535;28;20056;-94
2023/04/10 09:55:15;;;;;;;7.85;6.50;;;;;;;15.75;43.83;100846.50;5011568;28;20040;-94
2023/04/10 09:57:47;;;;;;;9.73;6.80;;;;;;;15.79;43.64;100845.38;5011499;28;20042;-88
2023/04/10 10:00:17;;;;;;;9.07;7.45;;;;;;;15.92;42.69;100842.81;5046235;28;20043;-88
2023/04/10 10:02:44;;;;;;;8.98;6.80;;;;;;;15.88;42.51;100823.47;5020475;28;20079;-93
2023/04/10 10:05:14;;;;;;;8.23;6.57;;;;;;;16.04;43.22;100828.72;5015902;28;20070;-91
2023/04/10 10:07:43;;;;;;;7.47;6.22;;;;;;;16.10;42.58;100818.47;5015972;28;20050;-93
2023/04/10 10:10:14;;;;;;;6.90;6.18;;;;;;;16.25;42.61;100824.66;5015210;28;20056;-92
2023/04/10 10:12:50;;;;;;;10.05;6.60;;;;;;;16.20;41.76;100802.75;5007502;28;20594;-89
2023/04/10 10:15:24;;;;;;;8.23;7.05;;;;;;;16.12;42.36;100791.66;5012823;28;20068;-87
2023/04/10 10:18:06;;;;;;;8.27;6.05;;;;;;;16.23;42.40;100807.00;5032778;28;20042;-87
2023/04/10 10:20:34;;;;;;;7.40;5.93;;;;;;;16.27;41.82;100812.06;5049161;28;20029;-87
2023/04/10 10:23:10;;;;;;;6.28;5.50;;;;;;;16.00;42.22;100760.41;5062189;28;20033;-88
2023/04/10 10:25:38;;;;;;;6.50;5.35;;;;;;;16.28;41.91;100797.75;5035311;28;20045;-91
2023/04/10 10:28:06;;;;;;;7.07;6.32;;;;;;;16.20;41.73;100770.69;5067762;28;20048;-89
2023/04/10 10:30:36;;;;;;;6.80;6.00;;;;;;;16.28;41.74;100786.19;5054870;28;20033;-88
2023/04/10 10:33:07;;;;;;;7.38;6.18;;;;;;;15.93;41.69;100743.03;5029056;28;20068;-90
2023/04/10 10:35:35;;;;;;;7.03;6.00;;;;;;;16.19;41.83;100776.97;5043463;28;20101;-92
2023/04/10 10:38:03;;;;;;;6.82;5.90;;;;;;;16.15;41.64;100756.75;5060053;28;20531;-91
2023/04/10 10:40:39;;;;;;;7.80;6.28;;;;;;;16.42;42.06;100776.34;5052007;28;20030;-87
2023/04/10 10:43:42;;;;;;;6.68;5.93;;;;;;;16.59;41.41;100771.69;5053199;28;20052;-90
2023/04/10 10:46:16;;;;;;;8.70;5.80;;;;;;;16.73;40.99;100760.97;5049335;28;20121;-88
2023/04/10 10:49:01;;;;;;;6.97;5.70;;;;;;;16.83;40.40;100754.06;5044587;28;20124;-89
2023/04/10 10:51:48;;;;;;;8.00;6.55;;;;;;;16.78;41.08;100757.03;5047444;28;20069;-87
2023/04/10 10:54:29;;;;;;;7.00;5.65;;;;;;;16.87;41.87;100752.88;5062789;28;20113;-88
2023/04/10 10:57:01;;;;;;;6.43;5.65;;;;;;;17.07;41.30;100744.38;5053569;28;20033;-92
2023/04/10 10:59:45;;;;;;;6.43;5.68;;;;;;;17.17;39.78;100733.88;5039712;28;20037;-90
2023/04/10 11:02:19;;;;;;;6.40;5.20;;;;;;;17.19;39.77;100732.81;5028310;28;20044;-91
2023/04/10 11:04:48;;;;;;;5.78;5.18;;;;;;;17.24;41.03;100735.19;5023985;28;20049;-86
2023/04/10 11:07:15;;;;;;;6.20;5.20;;;;;;;17.30;39.51;100726.75;5041101;28;20034;-85
2023/04/10 11:09:56;;;;;;;6.70;5.05;;;;;;;17.48;39.50;100714.72;5038936;28;20064;-90
2023/04/10 11:12:24;;;;;;;5.95;5.10;;;;;;;17.65;37.95;100712.69;5039150;28;20034;-93
2023/04/10 11:14:59;;;;;;;5.50;4.47;;;;;;;17.71;37.80;100713.13;5052165;28;20038;-93
2023/04/10 11:17:54;;;;;;;5.22;4.72;;;;;;;17.76;38.12;100694.06;5047521;28;20095;-93
2023/04/10 11:20:25;;;;;;;4.87;4.33;;;;;;;17.81;37.95;100684.69;5054917;28;20131;-87
2023/04/10 11:23:10;;;;;;;5.25;4.60;;;;;;;18.02;37.58;100684.13;5054203;28;20034;-90
2023/04/10 11:25:49;;;;;;;5.97;5.03;;;;;;;18.18;37.33;100682.03;5058039;28;20063;-88
2023/04/10 11:28:33;;;;;;;5.78;4.60;;;;;;;18.23;37.31;100666.47;5056332;28;20042;-89
2023/04/10 11:31:20;;;;;;;6.30;5.18;;;;;;;18.32;36.50;100668.44;5056700;28;20075;-90
2023/04/10 11:34:12;;;;;;;5.18;4.32;;;;;;;18.32;36.89;100668.44;5047954;28;20032;-89
2023/04/10 11:36:42;;;;;;;4.95;4.45;;;;;;;18.28;36.54;100660.75;5058986;28;20033;-89
2023/04/10 11:39:19;;;;;;;5.38;4.70;;;;;;;18.17;36.29;100666.91;5033127;28;20037;-92